首页
METAR-TAF:

METAR-TAF

机场 :

臺灣桃園國際機場

臺北, 台湾

纬度: 25-05N, 经度: 121-13E, 海拔: 33米

当前天气观测

该预报发布于17分钟前的18:00 UTC
风速7节,风向西转西南
温度 28°C
湿度 89%
气压 1000 hPa
能见度10公里或以上
少量云层高于2000英尺
散云层高于9000英尺

METAR: RCTP 151800Z 24007KT 9999 FEW020 SCT090 28/26 Q1000 NOSIG RMK A2955

时间: 02:17 (18:17 UTC)

预报

该预报发布于1小时和17分钟前的17:00 UTC
预报有效从15日的 18点(UTC)到 16日的 24点(UTC)
风速10节,风向西转西南
能见度10公里或以上
少量云层高于1500英尺
多云层高于3200英尺
短暂存在
从 15日的 20点(UTC)到 15日的 24点(UTC)
能見度: 5000
少量云层高于1000英尺
多云层高于1800英尺
多云层高于3500英尺
阵雨
成为
从 16日的 00点(UTC)到 16日的 02点(UTC)
风速15节,风向西
成为
从 16日的 10点(UTC)到 16日的 12点(UTC)
风速10节,风向西转西南

TAF: RCTP 151700Z 1518/1624 25010KT 9999 FEW015 BKN032 TEMPO 1520/1524 5000 SHRA FEW010 BKN018 BKN035 BECMG 1600/1602 26015KT BECMG 1610/1612 24010KT

超过4000个机场的气象观测和天气预报(METAR&TAF报告)。

可查询的气象台以黄色和红色小点在地图上表示。

将鼠标移到小点上方,可查看气象台名称。

然后点击查看天气观测和预报。

如需切换地图:点击带黑十字的绿色按钮放大地图;点击带横线的绿色按钮缩小地图;或者点击绿色箭头查看邻近地区的地图。


METAR-TAF: